Etusivu
METAR-TAF:

METAR-TAF

Lentoasemat :

Andersenin lentotukikohta

Andersen, Guam, Yhdysvallat

Leveyspiiri: 13-35N, Pituuspiiri: 144-56E, korkeus merenpinnasta: 187 m

Tämänhetkinen sää

Tämä raportti tehtiin 15 minuuttia sitten, kello 00.55 UTC
Tuuli 15 kn koillisesta
Lämpötila 28°C
Kosteus 74%
Ilmanpaine 1014 hPa
Näkyvyys: 9.7 km
Hajonneita pilviä 1500 ft:n korkeudessa
usvaa

METAR: PGUA 250055Z AUTO 04015KT 6SM HZ BKN015 28/23 A2994 RMK AO2 SLP129 T02780229 $

Aika: 11:10 (01:10 UTC)

Sääennuste

Tämä raportti tehtiin 7 tuntia ja 10 minuuttia sitten, kello 18.00 UTC
Ennuste voimassa 24. päivästä klo 18 UTC - 25. päivään klo 24 UTC
Tuuli 12 kn koillisesta puuskistuen 20 kn:hen
Näkyvyys 10 km tai enemmän
Hajonneita pilviä 1500 ft:n korkeudessa
sadekuuroja näköpiirissä,

TAF: PGUA 241800Z 2418/2524 05012G20KT 9999 VCSH BKN015 QNH2989INS TX28/2503Z TN25/2418Z

Säähavainnot ja -ennusteet yli 4000 lentoasemalta (METAR- ja TAF-raportit).

Käytössä olevat sääasemat on merkitty karttaan keltaisilla ja punaisilla pisteillä.

Aseta hiiri pisteen päälle nähdäksesi sääaseman nimen.

Klikkaa sitten nähdäksesi säähavainnot ja -ennusteet.

Kartan vaihtaminen: klikkaa mustalla rastilla varustettuja vihreitä pisteitä, niin voit zoomata sisään; viivalla varustettua vihreää pistettä, niin voit zoomata ulos tai vihreitä nuolia, niin pääset viereisille kartoille.


METAR-TAF: